createdAt,value
2019-06-01T00:01:44.479Z,99592.40
2019-06-01T00:04:14.223Z,99586.12
2019-06-01T00:06:44.784Z,99594.69
2019-06-01T00:09:14.274Z,99586.56
2019-06-01T00:11:43.749Z,99586.02
2019-06-01T00:14:13.198Z,99578.03
2019-06-01T00:16:43.721Z,99576.30
2019-06-01T00:19:13.575Z,99577.45
2019-06-01T00:21:43.295Z,99579.52
2019-06-01T00:24:12.884Z,99575.71
2019-06-01T00:26:43.608Z,99579.14
2019-06-01T00:29:13.140Z,99582.87
2019-06-01T00:31:43.110Z,99586.15
2019-06-01T00:34:12.609Z,99583.34
2019-06-01T00:36:41.995Z,99584.59
2019-06-01T00:39:11.488Z,99578.42
2019-06-01T00:41:41.893Z,99576.94
2019-06-01T00:44:11.351Z,99575.83
2019-06-01T00:46:40.854Z,99571.84
2019-06-01T00:49:10.409Z,99572.80
2019-06-01T00:51:39.771Z,99565.05
2019-06-01T00:54:09.184Z,99566.92
2019-06-01T00:56:38.651Z,99568.92
2019-06-01T00:59:08.117Z,99564.38
2019-06-01T01:01:37.518Z,99562.04
2019-06-01T01:04:06.910Z,99553.88
2019-06-01T01:06:36.374Z,99561.48
2019-06-01T01:09:08.815Z,99554.66
2019-06-01T01:11:38.213Z,99555.45
2019-06-01T01:14:07.591Z,99554.08
2019-06-01T01:16:37.101Z,99552.05
2019-06-01T01:19:06.505Z,99546.63
2019-06-01T01:21:35.973Z,99543.31
2019-06-01T01:24:05.582Z,99540.22
2019-06-01T01:26:34.940Z,99541.84
2019-06-01T01:29:04.428Z,99541.55
2019-06-01T01:31:33.918Z,99529.56
2019-06-01T01:34:03.396Z,99525.14
2019-06-01T01:36:33.545Z,99523.99
2019-06-01T01:39:02.977Z,99526.91
2019-06-01T01:41:32.431Z,99522.33
2019-06-01T01:44:01.883Z,99523.33
2019-06-01T01:46:31.287Z,99525.31
2019-06-01T01:49:00.664Z,99523.98
2019-06-01T01:51:30.140Z,99527.23
2019-06-01T01:53:59.633Z,99527.38
2019-06-01T01:56:29.011Z,99522.33
2019-06-01T01:58:58.492Z,99527.16
2019-06-01T02:01:27.878Z,99525.72
2019-06-01T02:03:57.453Z,99529.70
2019-06-01T02:06:29.175Z,99535.20
2019-06-01T02:08:59.338Z,99530.88
2019-06-01T02:11:28.795Z,99538.44
2019-06-01T02:13:58.230Z,99533.38
2019-06-01T02:16:27.716Z,99529.42
2019-06-01T02:18:58.574Z,99521.84
2019-06-01T02:21:28.339Z,99525.43
2019-06-01T02:23:58.943Z,99515.45
2019-06-01T02:26:28.552Z,99515.59
2019-06-01T02:28:59.415Z,99510.75
2019-06-01T02:31:40.790Z,99512.45
2019-06-01T02:34:01.548Z,99515.84
2019-06-01T02:36:31.319Z,99505.80
2019-06-01T02:39:01.593Z,99510.50
2019-06-01T02:41:31.961Z,99509.03
2019-06-01T02:44:02.101Z,99508.38
2019-06-01T02:46:35.541Z,99509.81
2019-06-01T02:49:04.725Z,99514.88
2019-06-01T02:51:35.081Z,99512.05
2019-06-01T02:54:04.594Z,99515.78
2019-06-01T02:56:33.963Z,99518.41
2019-06-01T02:59:04.431Z,99520.88
2019-06-01T03:01:38.354Z,99522.06
2019-06-01T03:04:10.336Z,99520.73
2019-06-01T03:06:43.435Z,99521.95
2019-06-01T03:09:14.041Z,99524.39
2019-06-01T03:11:43.515Z,99526.89
2019-06-01T03:14:13.495Z,99525.77
2019-06-01T03:16:44.324Z,99534.91
2019-06-01T03:19:16.739Z,99520.97
2019-06-01T03:21:50.171Z,99525.63
2019-06-01T03:24:24.083Z,99532.92
2019-06-01T03:26:55.207Z,99524.52
2019-06-01T03:29:27.788Z,99532.69
2019-06-01T03:32:17.635Z,99532.42
2019-06-01T03:34:28.270Z,99540.59
2019-06-01T03:36:58.162Z,99534.36
2019-06-01T03:39:29.073Z,99542.63
2019-06-01T03:41:58.552Z,99544.75
2019-06-01T03:44:27.987Z,99548.91
2019-06-01T03:46:57.574Z,99546.17
2019-06-01T03:49:27.066Z,99551.05
2019-06-01T03:51:56.449Z,99547.93
2019-06-01T03:54:25.869Z,99554.25
2019-06-01T03:56:55.321Z,99555.44
2019-06-01T03:59:25.949Z,99555.44
2019-06-01T04:01:55.456Z,99554.59
2019-06-01T04:04:24.898Z,99556.17
2019-06-01T04:06:54.265Z,99560.42
2019-06-01T04:09:23.681Z,99558.95
2019-06-01T04:11:53.162Z,99558.12
2019-06-01T04:14:22.622Z,99554.06
2019-06-01T04:16:52.026Z,99555.06
2019-06-01T04:19:21.405Z,99559.75
2019-06-01T04:21:50.864Z,99560.70
2019-06-01T04:24:20.356Z,99562.84
2019-06-01T04:26:49.719Z,99564.53
2019-06-01T04:29:19.098Z,99564.84
2019-06-01T04:31:48.593Z,99565.10
2019-06-01T04:34:18.175Z,99566.52
2019-06-01T04:36:47.560Z,99561.56
2019-06-01T04:39:17.055Z,99567.86
2019-06-01T04:41:46.417Z,99561.66
2019-06-01T04:44:18.272Z,99563.25
2019-06-01T04:46:47.095Z,99566.27
2019-06-01T04:49:16.662Z,99570.66
2019-06-01T04:51:46.019Z,99577.68
2019-06-01T04:54:15.986Z,99566.75
2019-06-01T04:56:45.722Z,99563.89
2019-06-01T04:59:15.505Z,99575.08
2019-06-01T05:01:45.414Z,99558.52
2019-06-01T05:04:15.406Z,99565.94
2019-06-01T05:06:45.111Z,99560.45
2019-06-01T05:09:15.711Z,99556.28
2019-06-01T05:11:45.342Z,99555.36
2019-06-01T05:14:16.511Z,99558.67
2019-06-01T05:16:45.958Z,99565.83
2019-06-01T05:19:16.567Z,99564.22
2019-06-01T05:21:46.248Z,99563.02
2019-06-01T05:24:16.936Z,99563.06
2019-06-01T05:26:46.728Z,99566.70
2019-06-01T05:29:17.792Z,99561.33
2019-06-01T05:31:47.759Z,99557.31
2019-06-01T05:34:18.399Z,99554.55
2019-06-01T05:36:48.347Z,99559.26
2019-06-01T05:39:18.765Z,99567.13
2019-06-01T05:41:48.390Z,99567.32
2019-06-01T05:44:19.068Z,99559.72
2019-06-01T05:46:48.927Z,99568.04
2019-06-01T05:49:18.634Z,99572.51
2019-06-01T05:51:48.118Z,99576.20
2019-06-01T05:54:18.747Z,99565.14
2019-06-01T05:56:48.404Z,99573.73
2019-06-01T05:59:18.214Z,99574.08
2019-06-01T06:01:47.893Z,99576.11
2019-06-01T06:04:17.587Z,99573.32
2019-06-01T06:06:47.019Z,99570.16
2019-06-01T06:09:17.143Z,99571.23
2019-06-01T06:11:46.793Z,99565.54
2019-06-01T06:14:17.466Z,99575.44
2019-06-01T06:16:47.033Z,99580.80
2019-06-01T06:19:20.209Z,99577.20
2019-06-01T06:21:47.615Z,99576.65
2019-06-01T06:24:17.113Z,99581.07
2019-06-01T06:26:46.487Z,99577.38
2019-06-01T06:29:16.888Z,99577.24
2019-06-01T06:31:46.435Z,99574.41
2019-06-01T06:34:15.895Z,99573.06
2019-06-01T06:36:45.277Z,99573.14
2019-06-01T06:39:15.837Z,99578.00
2019-06-01T06:41:45.197Z,99572.48
2019-06-01T06:44:14.596Z,99577.16
2019-06-01T06:46:44.102Z,99581.68
2019-06-01T06:49:13.557Z,99575.34
2019-06-01T06:51:42.980Z,99579.47
2019-06-01T06:54:14.527Z,99578.80
2019-06-01T06:56:43.641Z,99583.42
2019-06-01T06:59:13.093Z,99582.67
2019-06-01T07:01:42.515Z,99574.53
2019-06-01T07:04:13.202Z,99568.20
2019-06-01T07:06:42.925Z,99569.59
2019-06-01T07:09:12.437Z,99573.36
2019-06-01T07:11:41.795Z,99580.47
2019-06-01T07:14:11.166Z,99578.72
2019-06-01T07:16:40.764Z,99568.41
2019-06-01T07:19:10.121Z,99570.83
2019-06-01T07:21:39.582Z,99565.82
2019-06-01T07:24:09.109Z,99562.39
2019-06-01T07:26:38.482Z,99568.01
2019-06-01T07:29:07.904Z,99568.47
2019-06-01T07:31:37.393Z,99563.98
2019-06-01T07:34:06.839Z,99565.13
2019-06-01T07:36:36.186Z,99559.84
2019-06-01T07:39:06.910Z,99562.38
2019-06-01T07:41:36.472Z,99558.41
2019-06-01T07:44:06.116Z,99562.83
2019-06-01T07:46:35.529Z,99556.88
2019-06-01T07:49:04.895Z,99563.22
2019-06-01T07:51:34.447Z,99565.41
2019-06-01T07:54:04.086Z,99558.48
2019-06-01T07:56:33.434Z,99560.29
2019-06-01T07:59:02.811Z,99555.99
2019-06-01T08:01:32.877Z,99556.22
2019-06-01T08:04:02.534Z,99561.11
2019-06-01T08:06:32.747Z,99561.68
2019-06-01T08:09:02.331Z,99555.81
2019-06-01T08:11:33.469Z,99552.48
2019-06-01T08:14:02.972Z,99568.70
2019-06-01T08:16:32.352Z,99557.20
2019-06-01T08:19:01.735Z,99557.56
2019-06-01T08:21:32.394Z,99557.95
2019-06-01T08:24:02.282Z,99557.76
2019-06-01T08:26:32.692Z,99555.91
2019-06-01T08:29:02.152Z,99556.24
2019-06-01T08:31:33.513Z,99553.48
2019-06-01T08:34:03.233Z,99552.47
2019-06-01T08:36:33.911Z,99558.22
2019-06-01T08:39:04.789Z,99556.50
2019-06-01T08:41:34.167Z,99549.97
2019-06-01T08:44:03.542Z,99552.13
2019-06-01T08:46:34.000Z,99557.20
2019-06-01T08:49:03.729Z,99552.78
2019-06-01T08:51:34.133Z,99551.28
2019-06-01T08:54:03.765Z,99551.09
2019-06-01T08:56:34.439Z,99550.58
2019-06-01T08:59:04.202Z,99546.58
2019-06-01T09:01:34.930Z,99547.47
2019-06-01T09:04:04.517Z,99554.37
2019-06-01T09:06:35.248Z,99549.34
2019-06-01T09:09:06.960Z,99551.60
2019-06-01T09:11:36.417Z,99554.84
2019-06-01T09:14:05.881Z,99544.09
2019-06-01T09:16:36.048Z,99540.76
2019-06-01T09:19:05.488Z,99540.86
2019-06-01T09:21:35.703Z,99540.09
2019-06-01T09:24:05.444Z,99539.45
2019-06-01T09:26:35.751Z,99530.56
2019-06-01T09:29:05.728Z,99535.49
2019-06-01T09:31:36.675Z,99537.55
2019-06-01T09:34:06.425Z,99526.14
2019-06-01T09:36:36.794Z,99534.01
2019-06-01T09:39:08.503Z,99533.43
2019-06-01T09:41:39.260Z,99536.37
2019-06-01T09:44:08.751Z,99524.44
2019-06-01T09:46:38.130Z,99523.13
2019-06-01T09:49:07.498Z,99525.22
2019-06-01T09:51:37.817Z,99511.39
2019-06-01T09:54:07.451Z,99504.58
2019-06-01T09:56:38.158Z,99497.30
2019-06-01T09:59:08.091Z,99496.19
2019-06-01T10:01:38.753Z,99500.22
2019-06-01T10:04:09.961Z,99503.88
2019-06-01T10:06:39.386Z,99495.77
2019-06-01T10:09:09.853Z,99493.91
2019-06-01T10:11:39.215Z,99491.97
2019-06-01T10:14:08.566Z,99488.06
2019-06-01T10:16:38.943Z,99481.98
2019-06-01T10:19:08.473Z,99483.30
2019-06-01T10:21:38.081Z,99479.47
2019-06-01T10:24:07.560Z,99481.01
2019-06-01T10:26:37.622Z,99476.11
2019-06-01T10:29:07.241Z,99476.48
2019-06-01T10:31:41.189Z,99474.55
2019-06-01T10:34:07.755Z,99472.80
2019-06-01T10:36:38.019Z,99472.45
2019-06-01T10:39:09.125Z,99473.26
2019-06-01T10:41:39.650Z,99472.97
2019-06-01T10:44:09.129Z,99471.64
2019-06-01T10:46:40.158Z,99469.64
2019-06-01T10:49:09.710Z,99466.50
2019-06-01T10:51:40.249Z,99459.39
2019-06-01T10:54:09.893Z,99461.91
2019-06-01T10:56:40.558Z,99458.08
2019-06-01T10:59:10.141Z,99460.91
2019-06-01T11:01:40.713Z,99456.83
2019-06-01T11:04:10.407Z,99456.93
2019-06-01T11:06:44.985Z,99459.50
2019-06-01T11:09:11.122Z,99454.42
2019-06-01T11:11:41.150Z,99458.98
2019-06-01T11:14:10.701Z,99453.05
2019-06-01T11:16:41.734Z,99452.77
2019-06-01T11:19:11.367Z,99455.84
2019-06-01T11:21:41.715Z,99450.23
2019-06-01T11:24:11.523Z,99450.20
2019-06-01T11:26:41.863Z,99451.25
2019-06-01T11:29:11.491Z,99449.20
2019-06-01T11:31:42.157Z,99446.66
2019-06-01T11:34:11.652Z,99447.75
2019-06-01T11:36:58.542Z,99443.45
2019-06-01T11:39:12.181Z,99438.84
2019-06-01T11:41:42.666Z,99428.11
2019-06-01T11:44:12.131Z,99428.91
2019-06-01T11:46:41.515Z,99436.30
2019-06-01T11:49:10.940Z,99436.84
2019-06-01T11:51:41.471Z,99444.42
2019-06-01T11:54:11.542Z,99444.77
2019-06-01T11:56:41.403Z,99443.22
2019-06-01T11:59:10.899Z,99429.80
2019-06-01T12:01:41.691Z,99428.62
2019-06-01T12:04:11.280Z,99425.34
2019-06-01T12:06:42.025Z,99433.20
2019-06-01T12:09:11.538Z,99431.45
2019-06-01T12:11:42.064Z,99422.30
2019-06-01T12:14:11.600Z,99421.52
2019-06-01T12:16:41.061Z,99420.55
2019-06-01T12:19:10.466Z,99418.41
2019-06-01T12:21:40.910Z,99421.67
2019-06-01T12:24:10.388Z,99418.20
2019-06-01T12:26:39.845Z,99418.94
2019-06-01T12:29:09.295Z,99420.14
2019-06-01T12:31:39.628Z,99411.69
2019-06-01T12:34:09.160Z,99408.47
2019-06-01T12:36:39.660Z,99409.75
2019-06-01T12:39:09.769Z,99411.63
2019-06-01T12:41:39.724Z,99405.10
2019-06-01T12:44:18.288Z,99408.95
2019-06-01T12:46:48.895Z,99408.65
2019-06-01T12:49:18.448Z,99406.63
2019-06-01T12:51:48.968Z,99401.53
2019-06-01T12:54:18.717Z,99392.73
2019-06-01T12:56:49.774Z,99393.88
2019-06-01T12:59:19.369Z,99390.64
2019-06-01T13:01:49.292Z,99389.55
2019-06-01T13:04:18.858Z,99388.93
2019-06-01T13:06:51.156Z,99385.80
2019-06-01T13:09:19.431Z,99373.30
2019-06-01T13:11:49.467Z,99376.02
2019-06-01T13:14:19.086Z,99367.70
2019-06-01T13:17:02.480Z,99365.66
2019-06-01T13:19:19.882Z,99359.39
2019-06-01T13:21:50.144Z,99357.43
2019-06-01T13:24:19.973Z,99356.25
2019-06-01T13:26:50.140Z,99359.19
2019-06-01T13:29:19.650Z,99364.80
2019-06-01T13:31:50.369Z,99366.84
2019-06-01T13:34:20.093Z,99368.12
2019-06-01T13:36:50.802Z,99364.52
2019-06-01T13:39:20.306Z,99362.93
2019-06-01T13:41:49.712Z,99353.28
2019-06-01T13:44:19.172Z,99353.83
2019-06-01T13:46:49.450Z,99352.98
2019-06-01T13:49:19.171Z,99359.96
2019-06-01T13:51:48.580Z,99345.58
2019-06-01T13:54:18.007Z,99348.61
2019-06-01T13:56:48.566Z,99352.40
2019-06-01T13:59:18.358Z,99350.56
2019-06-01T14:01:48.836Z,99344.98
2019-06-01T14:04:18.293Z,99347.25
2019-06-01T14:06:48.889Z,99334.88
2019-06-01T14:09:21.641Z,99324.94
2019-06-01T14:11:49.698Z,99331.15
2019-06-01T14:14:19.132Z,99335.33
2019-06-01T14:16:49.504Z,99337.25
2019-06-01T14:19:19.071Z,99332.20
2019-06-01T14:21:50.243Z,99323.14
2019-06-01T14:24:19.694Z,99321.46
2019-06-01T14:26:50.050Z,99317.86
2019-06-01T14:29:19.559Z,99312.66
2019-06-01T14:31:50.490Z,99316.69
2019-06-01T14:34:20.197Z,99307.18
2019-06-01T14:36:50.541Z,99301.31
2019-06-01T14:39:19.990Z,99299.56
2019-06-01T14:41:49.366Z,99300.73
2019-06-01T14:44:18.791Z,99302.15
2019-06-01T14:46:54.970Z,99294.73
2019-06-01T14:49:19.389Z,99296.23
2019-06-01T14:51:49.947Z,99289.88
2019-06-01T14:54:19.459Z,99289.84
2019-06-01T14:56:49.731Z,99289.34
2019-06-01T14:59:19.190Z,99293.22
2019-06-01T15:01:48.550Z,99293.22
2019-06-01T15:04:17.976Z,99294.92
2019-06-01T15:06:48.199Z,99289.70
2019-06-01T15:09:19.702Z,99294.88
2019-06-01T15:11:49.074Z,99289.46
2019-06-01T15:14:19.731Z,99287.78
2019-06-01T15:16:49.636Z,99288.36
2019-06-01T15:19:19.158Z,99289.45
2019-06-01T15:21:49.944Z,99289.52
2019-06-01T15:24:19.474Z,99292.59
2019-06-01T15:26:48.852Z,99285.00
2019-06-01T15:29:19.544Z,99281.88
2019-06-01T15:31:48.994Z,99275.95
2019-06-01T15:34:18.412Z,99281.88
2019-06-01T15:36:47.803Z,99278.75
2019-06-01T15:39:24.840Z,99277.58
2019-06-01T15:41:48.471Z,99280.59
2019-06-01T15:44:17.917Z,99288.09
2019-06-01T15:46:47.273Z,99295.23
2019-06-01T15:49:16.722Z,99295.08
2019-06-01T15:51:46.242Z,99294.92
2019-06-01T15:54:15.710Z,99297.38
2019-06-01T15:56:45.136Z,99302.76
2019-06-01T15:59:14.620Z,99300.23
2019-06-01T16:01:44.070Z,99303.91
2019-06-01T16:04:13.476Z,99307.78
2019-06-01T16:06:42.869Z,99304.94
2019-06-01T16:09:12.284Z,99308.70
2019-06-01T16:11:41.749Z,99301.33
2019-06-01T16:14:11.191Z,99306.77
2019-06-01T16:16:40.550Z,99301.42
2019-06-01T16:19:09.983Z,99301.27
2019-06-01T16:21:39.456Z,99305.70
2019-06-01T16:24:08.948Z,99311.48
2019-06-01T16:26:38.331Z,99315.72
2019-06-01T16:29:07.840Z,99320.80
2019-06-01T16:31:37.324Z,99323.34
2019-06-01T16:34:06.937Z,99331.94
2019-06-01T16:36:36.415Z,99328.70
2019-06-01T16:39:08.431Z,99334.24
2019-06-01T16:41:37.785Z,99329.17
2019-06-01T16:44:07.256Z,99326.45
2019-06-01T16:46:36.717Z,99327.27
2019-06-01T16:49:06.303Z,99335.52
2019-06-01T16:51:56.606Z,99343.94
2019-06-01T16:54:26.596Z,99340.60
2019-06-01T16:56:56.195Z,99331.16
2019-06-01T16:59:25.760Z,99329.69
2019-06-01T17:01:56.498Z,99326.61
2019-06-01T17:04:26.174Z,99335.63
2019-06-01T17:06:56.579Z,99332.73
2019-06-01T17:09:26.043Z,99330.48
2019-06-01T17:11:56.614Z,99338.80
2019-06-01T17:14:26.095Z,99332.06
2019-06-01T17:16:56.970Z,99333.28
2019-06-01T17:19:26.602Z,99332.66
2019-06-01T17:21:57.263Z,99319.52
2019-06-01T17:24:26.859Z,99321.02
2019-06-01T17:26:56.224Z,99336.69
2019-06-01T17:29:25.713Z,99335.12
2019-06-01T17:32:12.528Z,99344.46
2019-06-01T17:34:26.301Z,99339.25
2019-06-01T17:36:55.745Z,99346.09
2019-06-01T17:39:25.169Z,99351.73
2019-06-01T17:41:54.630Z,99346.17
2019-06-01T17:44:24.082Z,99348.49
2019-06-01T17:46:54.244Z,99353.92
2019-06-01T17:49:23.791Z,99343.84
2019-06-01T17:51:53.307Z,99348.99
2019-06-01T17:54:22.736Z,99350.05
2019-06-01T17:56:52.254Z,99357.11
2019-06-01T17:59:21.711Z,99357.55
2019-06-01T18:01:51.076Z,99353.17
2019-06-01T18:04:20.534Z,99351.73
2019-06-01T18:06:50.055Z,99348.90
2019-06-01T18:09:19.531Z,99349.05
2019-06-01T18:11:48.903Z,99346.30
2019-06-01T18:14:19.176Z,99344.75
2019-06-01T18:16:48.674Z,99344.16
2019-06-01T18:19:18.088Z,99348.96
2019-06-01T18:21:47.491Z,99344.66
2019-06-01T18:24:16.929Z,99339.13
2019-06-01T18:26:46.407Z,99335.19
2019-06-01T18:29:15.858Z,99329.30
2019-06-01T18:31:45.228Z,99329.85
2019-06-01T18:34:14.655Z,99340.05
2019-06-01T18:36:44.119Z,99343.48
2019-06-01T18:39:13.747Z,99346.75
2019-06-01T18:41:43.190Z,99344.84
2019-06-01T18:44:12.631Z,99345.53
2019-06-01T18:46:42.192Z,99355.16
2019-06-01T18:49:11.977Z,99377.43
2019-06-01T18:51:41.612Z,99379.66
2019-06-01T18:54:11.065Z,99386.31
2019-06-01T18:56:40.488Z,99388.27
2019-06-01T18:59:10.297Z,99395.36
2019-06-01T19:01:39.969Z,99396.70
2019-06-01T19:04:09.744Z,99427.27
2019-06-01T19:06:39.387Z,99440.11
2019-06-01T19:09:09.503Z,99440.65
2019-06-01T19:11:38.991Z,99426.54
2019-06-01T19:14:09.711Z,99416.19
2019-06-01T19:16:39.334Z,99425.30
2019-06-01T19:19:08.749Z,99426.84
2019-06-01T19:21:38.161Z,99431.33
2019-06-01T19:24:08.477Z,99438.96
2019-06-01T19:26:38.102Z,99437.43
2019-06-01T19:29:08.782Z,99443.88
2019-06-01T19:31:38.401Z,99438.00
2019-06-01T19:34:08.894Z,99432.23
2019-06-01T19:36:40.693Z,99432.41
2019-06-01T19:39:11.103Z,99435.23
2019-06-01T19:41:44.892Z,99437.61
2019-06-01T19:44:11.751Z,99428.94
2019-06-01T19:46:41.210Z,99416.82
2019-06-01T19:49:10.902Z,99413.80
2019-06-01T19:51:40.722Z,99416.32
2019-06-01T19:54:10.804Z,99413.59
2019-06-01T19:56:40.385Z,99423.08
2019-06-01T19:59:10.001Z,99413.78
2019-06-01T20:01:39.472Z,99425.41
2019-06-01T20:04:08.885Z,99420.34
2019-06-01T20:06:38.303Z,99429.08
2019-06-01T20:09:08.428Z,99421.19
2019-06-01T20:11:38.154Z,99424.02
2019-06-01T20:14:07.699Z,99433.95
2019-06-01T20:16:37.185Z,99434.94
2019-06-01T20:19:06.635Z,99439.36
2019-06-01T20:21:36.171Z,99448.34
2019-06-01T20:24:05.884Z,99455.73
2019-06-01T20:26:40.833Z,99464.75
2019-06-01T20:29:06.567Z,99474.96
2019-06-01T20:31:36.035Z,99482.87
2019-06-01T20:34:05.756Z,99477.75
2019-06-01T20:36:35.217Z,99473.70
2019-06-01T20:39:07.064Z,99468.70
2019-06-01T20:41:36.440Z,99467.52
2019-06-01T20:44:06.768Z,99463.71
2019-06-01T20:46:36.286Z,99474.30
2019-06-01T20:49:05.708Z,99476.06
2019-06-01T20:51:35.186Z,99483.03
2019-06-01T20:54:04.703Z,99489.02
2019-06-01T20:56:34.385Z,99486.30
2019-06-01T20:59:03.831Z,99491.45
2019-06-01T21:01:33.180Z,99484.50
2019-06-01T21:04:02.592Z,99483.82
2019-06-01T21:06:32.256Z,99480.19
2019-06-01T21:09:01.658Z,99475.55
2019-06-01T21:11:31.036Z,99481.83
2019-06-01T21:14:00.474Z,99487.11
2019-06-01T21:16:29.933Z,99490.77
2019-06-01T21:18:59.337Z,99492.45
2019-06-01T21:21:28.738Z,99499.56
2019-06-01T21:23:58.168Z,99499.42
2019-06-01T21:26:27.621Z,99499.02
2019-06-01T21:28:57.479Z,99496.06
2019-06-01T21:31:26.854Z,99485.64
2019-06-01T21:33:56.275Z,99486.39
2019-06-01T21:36:25.910Z,99484.44
2019-06-01T21:38:55.261Z,99490.62
2019-06-01T21:41:25.766Z,99486.88
2019-06-01T21:43:55.282Z,99491.81
2019-06-01T21:46:25.758Z,99498.45
2019-06-01T21:48:55.226Z,99502.66
2019-06-01T21:51:25.925Z,99501.81
2019-06-01T21:53:55.573Z,99498.78
2019-06-01T21:56:25.325Z,99508.42
2019-06-01T21:58:56.019Z,99509.88
2019-06-01T22:01:26.897Z,99508.15
2019-06-01T22:03:56.492Z,99510.25
2019-06-01T22:06:25.952Z,99508.69
2019-06-01T22:08:55.382Z,99513.03
2019-06-01T22:11:25.554Z,99510.97
2019-06-01T22:13:55.171Z,99526.39
2019-06-01T22:16:25.730Z,99520.05
2019-06-01T22:18:55.237Z,99518.86
2019-06-01T22:21:25.882Z,99517.38
2019-06-01T22:23:55.337Z,99522.02
2019-06-01T22:26:24.710Z,99516.39
2019-06-01T22:28:54.187Z,99525.38
2019-06-01T22:31:24.584Z,99519.21
2019-06-01T22:33:54.035Z,99519.39
2019-06-01T22:36:23.484Z,99524.59
2019-06-01T22:38:52.882Z,99523.44
2019-06-01T22:41:22.242Z,99521.72
2019-06-01T22:43:51.700Z,99528.89
2019-06-01T22:46:22.311Z,99521.92
2019-06-01T22:48:51.769Z,99537.81
2019-06-01T22:51:21.167Z,99533.23
2019-06-01T22:53:50.585Z,99534.80
2019-06-01T22:56:21.180Z,99536.84
2019-06-01T22:58:50.690Z,99539.02
2019-06-01T23:01:21.003Z,99536.48
2019-06-01T23:03:50.559Z,99535.09
2019-06-01T23:06:20.918Z,99529.35
2019-06-01T23:08:50.349Z,99520.97
2019-06-01T23:11:20.009Z,99529.52
2019-06-01T23:13:53.733Z,99536.47
2019-06-01T23:16:21.781Z,99528.93
2019-06-01T23:18:51.199Z,99530.41
2019-06-01T23:21:21.802Z,99520.37
2019-06-01T23:23:51.194Z,99520.05
2019-06-01T23:26:21.984Z,99512.47
2019-06-01T23:28:51.625Z,99507.54
2019-06-01T23:31:22.249Z,99504.27
2019-06-01T23:33:51.670Z,99512.89
2019-06-01T23:36:22.402Z,99508.13
2019-06-01T23:38:51.953Z,99517.30
2019-06-01T23:41:22.428Z,99517.66
2019-06-01T23:44:09.960Z,99520.87
2019-06-01T23:46:23.278Z,99520.45
2019-06-01T23:48:52.689Z,99518.71
2019-06-01T23:51:23.366Z,99522.75
2019-06-01T23:53:52.962Z,99518.59
2019-06-01T23:56:23.527Z,99511.53
2019-06-01T23:58:53.118Z,99513.42
